createdAt,value
2022-12-08T00:01:32.663Z,2.49
2022-12-08T00:04:01.560Z,2.64
2022-12-08T00:06:50.778Z,2.65
2022-12-08T00:09:38.215Z,2.67
2022-12-08T00:12:13.889Z,2.65
2022-12-08T00:14:43.048Z,2.63
2022-12-08T00:17:13.006Z,2.65
2022-12-08T00:19:41.219Z,2.70
2022-12-08T00:22:10.831Z,2.78
2022-12-08T00:24:40.081Z,2.82
2022-12-08T00:27:09.818Z,2.86
2022-12-08T00:29:38.018Z,2.91
2022-12-08T00:32:07.115Z,2.91
2022-12-08T00:34:35.173Z,2.91
2022-12-08T00:37:03.155Z,2.92
2022-12-08T00:39:31.947Z,2.95
2022-12-08T00:42:12.325Z,2.97
2022-12-08T00:44:44.739Z,2.99
2022-12-08T00:47:14.327Z,2.98
2022-12-08T00:49:42.213Z,2.99
2022-12-08T00:52:10.175Z,2.99
2022-12-08T00:54:38.315Z,2.99
2022-12-08T00:57:06.401Z,3.00
2022-12-08T00:59:34.288Z,2.99
2022-12-08T01:02:03.390Z,3.02
2022-12-08T01:04:31.424Z,3.05
2022-12-08T01:06:59.547Z,3.08
2022-12-08T01:09:27.588Z,3.08
2022-12-08T01:11:56.017Z,3.08
2022-12-08T01:14:24.045Z,3.06
2022-12-08T01:16:52.141Z,3.07
2022-12-08T01:19:20.136Z,3.10
2022-12-08T01:21:47.973Z,3.11
2022-12-08T01:24:20.092Z,3.12
2022-12-08T01:26:50.303Z,3.14
2022-12-08T01:29:18.352Z,3.16
2022-12-08T01:31:46.520Z,3.16
2022-12-08T01:34:14.468Z,3.17
2022-12-08T01:36:44.356Z,3.15
2022-12-08T01:39:18.255Z,3.10
2022-12-08T01:41:47.899Z,3.04
2022-12-08T01:44:15.749Z,3.02
2022-12-08T01:46:48.594Z,3.02
2022-12-08T01:49:22.293Z,3.04
2022-12-08T01:52:05.525Z,3.10
2022-12-08T01:54:39.115Z,3.14
2022-12-08T01:57:21.157Z,3.17
2022-12-08T01:59:59.794Z,3.15
2022-12-08T02:02:34.445Z,3.13
2022-12-08T02:05:03.600Z,3.11
2022-12-08T02:07:32.082Z,3.10
2022-12-08T02:10:01.225Z,3.10
2022-12-08T02:12:29.615Z,3.10
2022-12-08T02:15:01.856Z,3.08
2022-12-08T02:17:44.269Z,3.04
2022-12-08T02:20:44.881Z,3.03
2022-12-08T02:23:35.682Z,3.00
2022-12-08T02:26:37.334Z,2.99
2022-12-08T02:29:28.698Z,2.98
2022-12-08T02:32:42.401Z,2.96
2022-12-08T02:35:22.459Z,2.95
2022-12-08T02:37:54.984Z,2.92
2022-12-08T02:40:53.187Z,2.93
2022-12-08T02:43:35.363Z,2.86
2022-12-08T02:46:11.304Z,2.84
2022-12-08T02:48:40.214Z,2.81
2022-12-08T02:51:08.934Z,2.77
2022-12-08T02:53:37.098Z,2.74
2022-12-08T02:56:46.842Z,2.73
2022-12-08T03:00:00.252Z,2.72
2022-12-08T03:02:56.534Z,2.70
2022-12-08T03:06:02.443Z,2.71
2022-12-08T03:08:30.315Z,2.73
2022-12-08T03:11:20.452Z,2.73
2022-12-08T03:13:53.142Z,2.73
2022-12-08T03:16:23.947Z,2.74
2022-12-08T03:19:00.454Z,2.74
2022-12-08T03:21:29.809Z,2.74
2022-12-08T03:23:57.900Z,2.73
2022-12-08T03:26:34.400Z,2.72
2022-12-08T03:29:02.934Z,2.70
2022-12-08T03:31:37.612Z,2.69
2022-12-08T03:34:06.589Z,2.71
2022-12-08T03:36:34.629Z,2.70
2022-12-08T03:39:02.800Z,2.69
2022-12-08T03:41:30.792Z,2.69
2022-12-08T03:43:59.691Z,2.70
2022-12-08T03:48:57.396Z,2.74
2022-12-08T03:51:27.346Z,2.75
2022-12-08T03:53:55.199Z,2.79
2022-12-08T03:56:33.222Z,2.79
2022-12-08T03:59:01.584Z,2.79
2022-12-08T04:01:29.609Z,2.79
2022-12-08T04:03:57.892Z,2.79
2022-12-08T04:06:26.165Z,2.79
2022-12-08T04:08:54.261Z,2.77
2022-12-08T04:11:22.571Z,2.73
2022-12-08T04:13:50.541Z,2.71
2022-12-08T04:16:22.136Z,2.70
2022-12-08T04:18:50.253Z,2.70
2022-12-08T04:21:18.293Z,2.71
2022-12-08T04:23:46.716Z,2.72
2022-12-08T04:26:14.969Z,2.72
2022-12-08T04:28:43.682Z,2.70
2022-12-08T04:31:11.753Z,2.68
2022-12-08T04:33:39.828Z,2.66
2022-12-08T04:36:08.897Z,2.61
2022-12-08T04:38:37.574Z,2.60
2022-12-08T04:41:06.168Z,2.57
2022-12-08T04:43:34.116Z,2.55
2022-12-08T04:46:02.132Z,2.54
2022-12-08T04:48:30.069Z,2.52
2022-12-08T04:50:58.072Z,2.52
2022-12-08T04:53:27.236Z,2.53
2022-12-08T04:55:55.623Z,2.53
2022-12-08T04:58:23.680Z,2.54
2022-12-08T05:00:51.975Z,2.55
2022-12-08T05:03:25.283Z,2.55
2022-12-08T05:05:56.425Z,2.56
2022-12-08T05:08:24.806Z,2.55
2022-12-08T05:10:53.114Z,2.57
2022-12-08T05:13:21.089Z,2.60
2022-12-08T05:15:49.122Z,2.62
2022-12-08T05:18:17.330Z,2.64
2022-12-08T05:20:45.363Z,2.66
2022-12-08T05:23:13.290Z,2.65
2022-12-08T05:25:41.283Z,2.62
2022-12-08T05:28:39.645Z,2.59
2022-12-08T05:30:57.180Z,2.57
2022-12-08T05:33:25.212Z,2.58
2022-12-08T05:35:53.207Z,2.59
2022-12-08T05:38:21.243Z,2.62
2022-12-08T05:40:49.207Z,2.60
2022-12-08T05:43:17.273Z,2.59
2022-12-08T05:45:45.302Z,2.60
2022-12-08T05:48:13.557Z,2.63
2022-12-08T05:50:47.031Z,2.66
2022-12-08T05:53:16.305Z,2.69
2022-12-08T05:55:44.526Z,2.74
2022-12-08T05:58:14.980Z,2.77
2022-12-08T06:00:43.712Z,2.79
2022-12-08T06:03:13.062Z,2.82
2022-12-08T06:05:42.956Z,2.82
2022-12-08T06:08:11.228Z,2.80
2022-12-08T06:10:43.634Z,2.79
2022-12-08T06:13:12.626Z,2.77
2022-12-08T06:15:41.209Z,2.75
2022-12-08T06:18:10.995Z,2.75
2022-12-08T06:20:39.055Z,2.75
2022-12-08T06:23:06.922Z,2.75
2022-12-08T06:25:35.012Z,2.78
2022-12-08T06:28:05.149Z,2.79
2022-12-08T06:30:33.321Z,2.81
2022-12-08T06:33:01.241Z,2.84
2022-12-08T06:35:29.398Z,2.90
2022-12-08T06:37:57.572Z,2.97
2022-12-08T06:40:25.647Z,3.03
2022-12-08T06:42:53.831Z,3.07
2022-12-08T06:45:21.835Z,3.13
2022-12-08T06:47:49.880Z,3.18
2022-12-08T06:50:17.859Z,3.22
2022-12-08T06:52:58.228Z,3.23
2022-12-08T06:58:19.863Z,3.33
2022-12-08T07:00:47.922Z,3.30
2022-12-08T07:03:15.991Z,3.27
2022-12-08T07:05:44.025Z,3.23
2022-12-08T07:08:12.130Z,3.21
2022-12-08T07:10:40.246Z,3.20
2022-12-08T07:13:08.196Z,3.18
2022-12-08T07:15:36.255Z,3.19
2022-12-08T07:18:04.200Z,3.17
2022-12-08T07:20:32.371Z,3.07
2022-12-08T07:23:00.405Z,3.18
2022-12-08T07:25:28.574Z,3.16
2022-12-08T07:27:56.648Z,3.14
2022-12-08T07:30:24.572Z,3.18
2022-12-08T07:32:52.736Z,3.13
2022-12-08T07:35:21.573Z,3.18
2022-12-08T07:37:50.300Z,3.25
2022-12-08T07:40:18.336Z,3.30
2022-12-08T07:42:46.190Z,3.39
2022-12-08T07:45:14.313Z,3.53
2022-12-08T07:47:42.182Z,3.62
2022-12-08T07:50:10.475Z,3.66
2022-12-08T07:52:38.505Z,3.75
2022-12-08T07:55:06.912Z,3.80
2022-12-08T07:57:34.857Z,3.81
2022-12-08T08:00:05.010Z,3.81
2022-12-08T08:02:40.338Z,3.81
2022-12-08T08:05:09.503Z,3.84
2022-12-08T08:07:38.299Z,3.90
2022-12-08T08:10:07.509Z,3.96
2022-12-08T08:12:36.832Z,4.00
2022-12-08T08:15:08.350Z,4.01
2022-12-08T08:17:38.105Z,3.99
2022-12-08T08:20:07.405Z,4.00
2022-12-08T08:22:35.790Z,4.02
2022-12-08T08:25:04.210Z,4.07
2022-12-08T08:27:32.112Z,4.14
2022-12-08T08:30:00.165Z,4.19
2022-12-08T08:32:28.253Z,4.25
2022-12-08T08:34:56.248Z,4.28
2022-12-08T08:37:24.224Z,4.23
2022-12-08T08:39:52.325Z,4.21
2022-12-08T08:42:23.094Z,4.25
2022-12-08T08:44:51.199Z,4.25
2022-12-08T08:47:19.148Z,4.25
2022-12-08T08:49:47.226Z,4.29
2022-12-08T08:52:15.150Z,4.31
2022-12-08T08:54:43.007Z,4.36
2022-12-08T08:57:12.368Z,4.41
2022-12-08T08:59:40.316Z,4.46
2022-12-08T09:02:17.444Z,4.55
2022-12-08T09:04:45.899Z,4.67
2022-12-08T09:07:14.835Z,4.76
2022-12-08T09:09:42.783Z,4.78
2022-12-08T09:12:11.131Z,4.80
2022-12-08T09:14:39.243Z,4.89
2022-12-08T09:17:07.823Z,5.06
2022-12-08T09:19:35.927Z,5.16
2022-12-08T09:22:04.325Z,5.20
2022-12-08T09:24:32.333Z,5.20
2022-12-08T09:27:00.280Z,5.27
2022-12-08T09:29:34.046Z,5.38
2022-12-08T09:32:04.236Z,5.51
2022-12-08T09:34:32.243Z,5.67
2022-12-08T09:37:00.682Z,5.77
2022-12-08T09:39:28.683Z,5.90
2022-12-08T09:42:02.438Z,6.09
2022-12-08T09:45:04.234Z,6.36
2022-12-08T09:47:43.737Z,6.72
2022-12-08T09:50:35.075Z,6.94
2022-12-08T09:53:14.883Z,6.96
2022-12-08T09:56:13.789Z,7.18
2022-12-08T09:59:00.499Z,7.04
2022-12-08T10:01:30.094Z,6.86
2022-12-08T10:03:58.191Z,6.60
2022-12-08T10:06:47.554Z,6.46
2022-12-08T10:09:53.063Z,6.22
2022-12-08T10:12:44.565Z,6.04
2022-12-08T10:15:44.152Z,5.99
2022-12-08T10:18:25.193Z,5.92
2022-12-08T10:20:58.007Z,5.91
2022-12-08T10:23:35.213Z,5.88
2022-12-08T10:26:06.404Z,5.82
2022-12-08T10:28:40.028Z,5.78
2022-12-08T10:31:21.271Z,5.73
2022-12-08T10:33:58.693Z,5.72
2022-12-08T10:36:47.713Z,5.71
2022-12-08T10:39:35.741Z,5.65
2022-12-08T10:42:16.723Z,5.53
2022-12-08T10:45:10.764Z,5.46
2022-12-08T10:47:44.823Z,5.37
2022-12-08T10:50:22.858Z,5.31
2022-12-08T10:53:02.196Z,5.30
2022-12-08T10:55:39.271Z,5.31
2022-12-08T10:58:23.583Z,5.29
2022-12-08T11:00:55.902Z,5.24
2022-12-08T11:03:29.424Z,5.21
2022-12-08T11:06:05.382Z,5.19
2022-12-08T11:08:47.969Z,5.17
2022-12-08T11:11:17.051Z,5.15
2022-12-08T11:13:47.652Z,5.15
2022-12-08T11:16:18.179Z,5.08
2022-12-08T11:18:55.300Z,5.05
2022-12-08T11:21:35.451Z,5.05
2022-12-08T11:24:15.857Z,5.04
2022-12-08T11:26:51.396Z,4.98
2022-12-08T11:29:19.936Z,4.91
2022-12-08T11:31:53.556Z,4.87
2022-12-08T11:34:37.378Z,4.88
2022-12-08T11:37:11.183Z,4.93
2022-12-08T11:39:48.602Z,4.99
2022-12-08T11:42:18.623Z,5.05
2022-12-08T11:44:58.248Z,5.10
2022-12-08T11:47:39.296Z,5.12
2022-12-08T11:50:29.821Z,5.08
2022-12-08T11:52:59.986Z,5.02
2022-12-08T11:55:37.349Z,5.01
2022-12-08T11:58:18.746Z,5.00
2022-12-08T12:00:47.138Z,5.01
2022-12-08T12:03:21.304Z,5.01
2022-12-08T12:06:13.569Z,5.00
2022-12-08T12:09:37.734Z,4.96
2022-12-08T12:12:15.979Z,4.99
2022-12-08T12:15:19.178Z,4.96
2022-12-08T12:17:47.346Z,4.95
2022-12-08T12:20:30.882Z,4.93
2022-12-08T12:23:06.096Z,4.90
2022-12-08T12:25:36.984Z,4.89
2022-12-08T12:28:09.513Z,4.83
2022-12-08T12:30:52.764Z,4.82
2022-12-08T12:33:22.647Z,4.77
2022-12-08T12:35:51.345Z,4.80
2022-12-08T12:39:08.652Z,4.81
2022-12-08T12:41:53.012Z,4.78
2022-12-08T12:44:24.094Z,4.74
2022-12-08T12:46:53.541Z,4.67
2022-12-08T12:49:39.984Z,4.59
2022-12-08T12:52:17.118Z,4.53
2022-12-08T12:54:58.786Z,4.53
2022-12-08T12:57:38.083Z,4.52
2022-12-08T13:00:19.767Z,4.43
2022-12-08T13:02:49.764Z,4.39
2022-12-08T13:05:49.620Z,4.34
2022-12-08T13:08:26.009Z,4.21
2022-12-08T13:11:02.356Z,4.14
2022-12-08T13:13:30.861Z,4.10
2022-12-08T13:16:19.561Z,4.06
2022-12-08T13:18:56.482Z,4.06
2022-12-08T13:21:31.817Z,4.03
2022-12-08T13:24:18.021Z,4.02
2022-12-08T13:26:48.938Z,3.95
2022-12-08T13:29:18.814Z,3.94
2022-12-08T13:31:51.409Z,3.87
2022-12-08T13:34:34.326Z,3.93
2022-12-08T13:37:11.633Z,3.86
2022-12-08T13:39:41.775Z,3.76
2022-12-08T13:42:12.236Z,3.72
2022-12-08T13:45:59.165Z,3.71
2022-12-08T13:56:16.679Z,3.63
2022-12-08T13:57:33.065Z,3.57
2022-12-08T14:00:07.491Z,3.52
2022-12-08T14:02:47.750Z,3.51
2022-12-08T14:05:20.606Z,3.43
2022-12-08T14:07:56.614Z,3.50
2022-12-08T14:10:32.245Z,3.50
2022-12-08T14:13:03.989Z,3.51
2022-12-08T14:15:38.398Z,3.52
2022-12-08T14:18:31.595Z,3.54
2022-12-08T14:21:20.871Z,3.52
2022-12-08T14:23:50.024Z,3.45
2022-12-08T14:26:18.094Z,3.50
2022-12-08T14:28:51.481Z,3.49
2022-12-08T14:31:20.517Z,3.50
2022-12-08T14:33:51.866Z,3.46
2022-12-08T14:36:24.949Z,3.39
2022-12-08T14:38:54.625Z,3.32
2022-12-08T14:41:31.944Z,3.31
2022-12-08T14:44:03.357Z,3.34
2022-12-08T14:46:31.502Z,3.32
2022-12-08T14:48:59.831Z,3.32
2022-12-08T14:51:31.639Z,3.32
2022-12-08T14:53:59.855Z,3.32
2022-12-08T14:56:42.347Z,3.33
2022-12-08T14:59:30.614Z,3.31
2022-12-08T15:02:27.732Z,3.30
2022-12-08T15:05:01.771Z,3.25
2022-12-08T15:07:31.318Z,3.20
2022-12-08T15:10:31.197Z,3.09
2022-12-08T15:13:10.420Z,2.98
2022-12-08T15:15:52.588Z,2.97
2022-12-08T15:18:41.024Z,2.98
2022-12-08T15:21:13.272Z,3.03
2022-12-08T15:23:50.072Z,3.04
2022-12-08T15:26:24.027Z,3.02
2022-12-08T15:28:52.665Z,3.01
2022-12-08T15:31:21.079Z,3.02
2022-12-08T15:33:49.054Z,3.02
2022-12-08T15:36:16.974Z,3.03
2022-12-08T15:38:45.082Z,3.04
2022-12-08T15:41:15.187Z,3.06
2022-12-08T15:43:43.361Z,3.08
2022-12-08T15:46:12.147Z,3.11
2022-12-08T15:48:40.839Z,3.09
2022-12-08T15:51:08.890Z,3.08
2022-12-08T15:53:36.909Z,3.05
2022-12-08T15:58:57.362Z,2.99
2022-12-08T16:01:26.901Z,3.00
2022-12-08T16:09:40.377Z,3.09
2022-12-08T16:13:13.894Z,3.10
2022-12-08T16:18:17.005Z,3.16
2022-12-08T16:21:07.410Z,3.18
2022-12-08T16:23:47.989Z,3.23
2022-12-08T16:27:06.851Z,3.24
2022-12-08T16:29:19.056Z,3.24
2022-12-08T16:31:47.347Z,3.22
2022-12-08T16:34:15.773Z,3.23
2022-12-08T16:36:43.764Z,3.27
2022-12-08T16:39:13.819Z,3.25
2022-12-08T16:42:00.655Z,3.31
2022-12-08T16:44:28.667Z,3.32
2022-12-08T16:46:56.754Z,3.32
2022-12-08T16:49:25.057Z,3.32
2022-12-08T16:51:53.166Z,3.35
2022-12-08T16:54:21.016Z,3.38
2022-12-08T16:56:48.901Z,3.39
2022-12-08T16:59:16.764Z,3.42
2022-12-08T17:01:44.817Z,3.46
2022-12-08T17:07:00.795Z,3.44
2022-12-08T17:09:31.028Z,3.45
2022-12-08T17:12:03.675Z,3.49
2022-12-08T17:14:34.751Z,3.56
2022-12-08T17:17:03.068Z,3.62
2022-12-08T17:19:31.057Z,3.66
2022-12-08T17:21:59.168Z,3.69
2022-12-08T17:24:29.180Z,3.70
2022-12-08T17:26:58.986Z,3.67
2022-12-08T17:29:26.884Z,3.63
2022-12-08T17:31:54.874Z,3.59
2022-12-08T17:34:23.209Z,3.54
2022-12-08T17:36:51.908Z,3.54
2022-12-08T17:39:19.831Z,3.58
2022-12-08T17:41:47.945Z,3.59
2022-12-08T17:44:17.530Z,3.67
2022-12-08T17:46:52.091Z,3.72
2022-12-08T17:49:22.958Z,3.72
2022-12-08T17:51:53.201Z,3.71
2022-12-08T17:54:21.643Z,3.71
2022-12-08T17:56:49.737Z,3.72
2022-12-08T17:59:17.978Z,3.71
2022-12-08T18:01:45.854Z,3.71
2022-12-08T18:04:13.895Z,3.73
2022-12-08T18:06:42.287Z,3.76
2022-12-08T18:09:10.551Z,3.80
2022-12-08T18:11:38.909Z,3.85
2022-12-08T18:14:10.397Z,3.92
2022-12-08T18:16:44.105Z,3.99
2022-12-08T18:19:13.844Z,4.03
2022-12-08T18:21:42.530Z,4.05
2022-12-08T18:24:19.522Z,4.10
2022-12-08T18:26:48.208Z,4.15
2022-12-08T18:29:16.043Z,4.19
2022-12-08T18:31:43.949Z,4.22
2022-12-08T18:34:11.817Z,4.21
2022-12-08T18:36:39.821Z,4.23
2022-12-08T18:39:10.978Z,4.28
2022-12-08T18:41:40.252Z,4.33
2022-12-08T18:44:08.071Z,4.34
2022-12-08T18:46:36.175Z,4.32
2022-12-08T18:49:09.211Z,4.28
2022-12-08T18:51:37.292Z,4.24
2022-12-08T18:54:05.352Z,4.21
2022-12-08T18:56:35.141Z,4.21
2022-12-08T18:59:06.694Z,4.24
2022-12-08T19:01:37.782Z,4.29
2022-12-08T19:06:56.968Z,4.43
2022-12-08T19:09:26.992Z,4.51
2022-12-08T19:11:56.869Z,4.59
2022-12-08T19:14:28.304Z,4.69
2022-12-08T19:16:57.849Z,4.79
2022-12-08T19:19:26.845Z,4.86
2022-12-08T19:21:55.043Z,4.92
2022-12-08T19:24:24.213Z,4.96
2022-12-08T19:26:52.441Z,4.99
2022-12-08T19:29:20.583Z,5.01
2022-12-08T19:31:48.761Z,5.00
2022-12-08T19:34:19.648Z,5.05
2022-12-08T19:36:47.966Z,5.08
2022-12-08T19:39:40.930Z,5.08
2022-12-08T19:42:35.602Z,5.07
2022-12-08T19:45:16.724Z,5.07
2022-12-08T19:47:45.001Z,5.06
2022-12-08T19:50:32.905Z,5.04
2022-12-08T19:53:01.447Z,4.99
2022-12-08T19:55:29.493Z,4.94
2022-12-08T19:57:58.489Z,4.89
2022-12-08T20:00:26.432Z,4.84
2022-12-08T20:02:54.507Z,4.80
2022-12-08T20:05:23.133Z,4.79
2022-12-08T20:07:52.369Z,4.79
2022-12-08T20:10:22.186Z,4.79
2022-12-08T20:12:50.482Z,4.75
2022-12-08T20:15:18.544Z,4.82
2022-12-08T20:17:46.570Z,4.85
2022-12-08T20:20:15.294Z,4.87
2022-12-08T20:22:45.366Z,4.86
2022-12-08T20:25:13.695Z,4.83
2022-12-08T20:27:41.778Z,4.82
2022-12-08T20:30:16.552Z,4.83
2022-12-08T20:32:45.769Z,4.86
2022-12-08T20:35:15.396Z,4.90
2022-12-08T20:37:43.400Z,4.93
2022-12-08T20:40:11.793Z,4.94
2022-12-08T20:42:39.730Z,4.93
2022-12-08T20:45:09.692Z,4.92
2022-12-08T20:47:38.533Z,4.92
2022-12-08T20:50:07.797Z,4.94
2022-12-08T20:52:38.013Z,4.98
2022-12-08T20:55:07.884Z,5.01
2022-12-08T20:57:35.869Z,5.03
2022-12-08T21:00:06.184Z,5.02
2022-12-08T21:02:34.657Z,4.98
2022-12-08T21:05:03.553Z,4.91
2022-12-08T21:07:32.555Z,4.84
2022-12-08T21:10:00.594Z,4.78
2022-12-08T21:12:28.672Z,4.73
2022-12-08T21:14:56.824Z,4.70
2022-12-08T21:17:25.427Z,4.66
2022-12-08T21:19:53.974Z,4.63
2022-12-08T21:22:22.037Z,4.59
2022-12-08T21:24:50.151Z,4.64
2022-12-08T21:27:18.138Z,4.66
2022-12-08T21:29:46.113Z,4.66
2022-12-08T21:32:15.375Z,4.68
2022-12-08T21:34:44.291Z,4.72
2022-12-08T21:37:12.350Z,4.75
2022-12-08T21:39:40.415Z,4.76
2022-12-08T21:42:33.937Z,4.73
2022-12-08T21:45:02.423Z,4.66
2022-12-08T21:47:30.657Z,4.65
2022-12-08T21:49:58.794Z,4.62
2022-12-08T21:52:26.934Z,4.59
2022-12-08T21:54:54.904Z,4.51
2022-12-08T21:57:23.082Z,4.42
2022-12-08T21:59:51.206Z,4.35
2022-12-08T22:02:22.348Z,4.26
2022-12-08T22:04:52.833Z,4.18
2022-12-08T22:07:21.646Z,4.11
2022-12-08T22:09:49.937Z,4.08
2022-12-08T22:12:18.224Z,4.07
2022-12-08T22:14:46.316Z,4.06
2022-12-08T22:17:14.377Z,4.06
2022-12-08T22:19:42.633Z,4.03
2022-12-08T22:22:10.639Z,4.01
2022-12-08T22:24:38.661Z,3.96
2022-12-08T22:27:06.694Z,3.91
2022-12-08T22:29:34.871Z,3.87
2022-12-08T22:32:03.036Z,3.81
2022-12-08T22:34:31.405Z,3.81
2022-12-08T22:36:59.490Z,3.84
2022-12-08T22:39:27.677Z,3.85
2022-12-08T22:41:55.625Z,3.86
2022-12-08T22:44:23.625Z,3.85
2022-12-08T22:46:51.724Z,3.84
2022-12-08T22:49:19.933Z,3.86
2022-12-08T22:51:47.908Z,3.86
2022-12-08T22:54:15.786Z,3.81
2022-12-08T22:56:43.953Z,3.77
2022-12-08T22:59:12.219Z,3.75
2022-12-08T23:01:40.174Z,3.74
2022-12-08T23:04:15.805Z,3.75
2022-12-08T23:06:45.732Z,3.73
2022-12-08T23:09:13.949Z,3.75
2022-12-08T23:11:42.284Z,3.72
2022-12-08T23:14:10.293Z,3.70
2022-12-08T23:16:38.516Z,3.69
2022-12-08T23:19:07.207Z,3.68
2022-12-08T23:21:35.182Z,3.67
2022-12-08T23:24:03.259Z,3.63
2022-12-08T23:26:33.252Z,3.60
2022-12-08T23:29:01.212Z,3.58
2022-12-08T23:31:29.401Z,3.61
2022-12-08T23:33:57.489Z,3.65
2022-12-08T23:36:28.736Z,3.65
2022-12-08T23:38:56.648Z,3.65
2022-12-08T23:41:24.547Z,3.66
2022-12-08T23:43:52.525Z,3.66
2022-12-08T23:46:21.369Z,3.64
2022-12-08T23:48:51.309Z,3.64
2022-12-08T23:51:20.039Z,3.65
2022-12-08T23:53:48.478Z,3.67
2022-12-08T23:56:17.957Z,3.72
2022-12-08T23:58:46.507Z,3.78
